Time;durP1;ratioP1;P1;durP2;ratioP2;P2;SDS_P1;SDS_P2;PMS_P1;PMS_P2;Temp;Humidity;BMP_temperature;BMP_pressure;BME280_temperature;BME280_humidity;BME280_pressure;Samples;Min_cycle;Max_cycle;Signal;HPM_P1;HPM_P2
2023/09/20 00:01:43;;;;;;;4.68;2.05;;;;;;;18.61;63.84;100804.28;5012507;28;20026;-73
2023/09/20 00:04:09;;;;;;;5.82;2.20;;;;;;;18.59;63.86;100801.81;5015104;28;20050;-73
2023/09/20 00:06:37;;;;;;;9.40;3.58;;;;;;;18.58;63.67;100804.91;5012301;28;20509;-73
2023/09/20 00:09:04;;;;;;;7.65;2.15;;;;;;;18.60;63.86;100809.09;5012151;28;20049;-72
2023/09/20 00:11:29;;;;;;;7.72;2.60;;;;;;;18.58;64.07;100799.28;5011859;28;20739;-72
2023/09/20 00:13:57;;;;;;;8.15;2.42;;;;;;;18.55;64.10;100794.28;5012416;28;20100;-72
2023/09/20 00:16:29;;;;;;;10.02;2.58;;;;;;;18.44;64.13;100801.25;5011955;28;20026;-72
2023/09/20 00:18:54;;;;;;;8.20;2.43;;;;;;;18.51;64.12;100807.28;5023162;28;20090;-72
2023/09/20 00:21:20;;;;;;;5.43;2.30;;;;;;;18.46;64.26;100796.97;5028638;28;20025;-73
2023/09/20 00:23:45;;;;;;;8.27;2.45;;;;;;;18.48;64.33;100793.88;5044881;28;20041;-72
2023/09/20 00:26:11;;;;;;;7.60;2.40;;;;;;;18.49;63.93;100798.34;5051393;28;20036;-73
2023/09/20 00:28:38;;;;;;;5.93;2.60;;;;;;;18.49;64.30;100795.53;5036887;28;20025;-72
2023/09/20 00:31:09;;;;;;;8.57;2.40;;;;;;;18.43;64.43;100791.97;5031093;28;20404;-72
2023/09/20 00:33:34;;;;;;;5.07;2.38;;;;;;;18.45;64.40;100788.84;5031637;28;20492;-72
2023/09/20 00:35:59;;;;;;;10.82;2.80;;;;;;;18.39;64.70;100800.19;5031806;28;20029;-72
2023/09/20 00:38:24;;;;;;;9.32;2.40;;;;;;;18.39;64.47;100788.09;5030433;28;20032;-73
2023/09/20 00:40:50;;;;;;;9.95;2.10;;;;;;;18.43;64.74;100791.13;5031698;28;20539;-73
2023/09/20 00:43:22;;;;;;;6.88;2.47;;;;;;;18.41;64.63;100788.63;5031140;28;20025;-73
2023/09/20 00:45:50;;;;;;;9.55;2.70;;;;;;;18.33;64.87;100786.53;5029159;28;20492;-72
2023/09/20 00:48:18;;;;;;;4.90;2.13;;;;;;;18.33;64.88;100778.09;5015046;28;20018;-72
2023/09/20 00:50:44;;;;;;;8.10;2.70;;;;;;;18.25;65.17;100779.63;5012035;28;20048;-72
2023/09/20 00:53:11;;;;;;;7.45;2.42;;;;;;;18.25;65.23;100785.25;5011069;28;20548;-72
2023/09/20 00:55:37;;;;;;;5.95;2.30;;;;;;;18.26;65.44;100781.28;5025036;28;20456;-72
2023/09/20 00:58:23;;;;;;;4.45;2.05;;;;;;;18.30;65.18;100778.69;5029672;28;20022;-72
2023/09/20 01:00:54;;;;;;;7.28;2.60;;;;;;;18.26;65.34;100781.28;5030669;28;20088;-72
2023/09/20 01:03:19;;;;;;;7.85;2.45;;;;;;;18.24;65.54;100782.75;5030408;28;20026;-72
2023/09/20 01:05:47;;;;;;;4.82;2.13;;;;;;;18.28;65.29;100786.63;5017280;28;20065;-72
2023/09/20 01:08:19;;;;;;;6.75;2.35;;;;;;;18.27;65.41;100788.56;5012939;28;20041;-72
2023/09/20 01:10:45;;;;;;;8.43;2.92;;;;;;;18.24;65.53;100794.00;5013081;28;20492;-72
2023/09/20 01:13:15;;;;;;;7.13;2.70;;;;;;;18.27;65.53;100788.56;5030817;28;20108;-73
2023/09/20 01:15:44;;;;;;;4.93;2.38;;;;;;;18.29;65.54;100788.28;5032200;28;20025;-72
2023/09/20 01:18:10;;;;;;;6.53;2.20;;;;;;;18.31;65.28;100784.03;5029522;28;20479;-73
2023/09/20 01:20:38;;;;;;;7.10;2.50;;;;;;;18.27;65.27;100777.31;5027525;28;20061;-73
2023/09/20 01:23:04;;;;;;;6.13;2.22;;;;;;;18.19;65.79;100778.03;5012974;28;20034;-73
2023/09/20 01:25:31;;;;;;;4.40;2.40;;;;;;;18.18;65.89;100776.38;5011205;28;20119;-72
2023/09/20 01:28:03;;;;;;;7.75;2.60;;;;;;;18.18;66.00;100769.91;5011099;28;20045;-72
2023/09/20 01:30:29;;;;;;;5.38;2.38;;;;;;;18.21;65.86;100767.34;5011497;28;20038;-72
2023/09/20 01:32:57;;;;;;;6.90;2.10;;;;;;;18.16;65.96;100770.22;5011531;28;20382;-72
2023/09/20 01:35:25;;;;;;;9.32;2.45;;;;;;;18.13;66.16;100766.03;5017681;28;20026;-72
2023/09/20 01:37:51;;;;;;;7.72;2.50;;;;;;;18.15;65.92;100768.53;5025698;28;20048;-72
2023/09/20 01:40:18;;;;;;;6.13;2.53;;;;;;;18.14;66.29;100766.88;5034148;28;20036;-72
2023/09/20 01:42:48;;;;;;;10.00;2.38;;;;;;;18.13;66.04;100749.19;5034276;28;20129;-72
2023/09/20 01:45:14;;;;;;;7.78;2.65;;;;;;;18.03;66.61;100763.38;5032823;28;20033;-72
2023/09/20 01:47:42;;;;;;;7.43;2.40;;;;;;;18.07;66.55;100763.63;5015246;28;20045;-72
2023/09/20 01:50:10;;;;;;;7.18;2.53;;;;;;;18.11;66.43;100751.47;5014390;28;20030;-73
2023/09/20 01:52:37;;;;;;;6.30;2.22;;;;;;;18.12;66.50;100755.13;5030774;28;20041;-72
2023/09/20 01:55:02;;;;;;;8.55;2.40;;;;;;;18.05;66.99;100749.91;5022080;28;20057;-72
2023/09/20 01:57:28;;;;;;;6.53;2.17;;;;;;;18.09;66.79;100747.31;5019503;28;20116;-72
2023/09/20 01:59:59;;;;;;;6.90;2.67;;;;;;;18.08;66.89;100742.84;5033490;28;20087;-72
2023/09/20 02:02:26;;;;;;;6.30;2.17;;;;;;;18.18;66.57;100751.06;5032764;28;20072;-72
2023/09/20 02:04:51;;;;;;;6.32;2.60;;;;;;;18.14;66.79;100738.78;5033110;28;20116;-72
2023/09/20 02:07:16;;;;;;;6.60;2.13;;;;;;;18.17;66.75;100732.56;5032936;28;20121;-72
2023/09/20 02:09:45;;;;;;;6.60;2.50;;;;;;;18.18;66.91;100731.41;5028988;28;20053;-72
2023/09/20 02:12:11;;;;;;;9.02;2.72;;;;;;;18.19;66.86;100730.25;5023856;28;20029;-72
2023/09/20 02:14:41;;;;;;;9.95;2.42;;;;;;;18.21;66.75;100725.19;5030071;28;20427;-72
2023/09/20 02:17:07;;;;;;;7.40;2.50;;;;;;;18.23;66.69;100724.88;5029042;28;20468;-72
2023/09/20 02:19:32;;;;;;;6.10;2.58;;;;;;;18.23;66.60;100725.69;5033102;28;20021;-72
2023/09/20 02:21:57;;;;;;;7.75;2.60;;;;;;;18.23;66.78;100720.09;5033198;28;20037;-72
2023/09/20 02:24:23;;;;;;;8.77;2.65;;;;;;;18.26;66.91;100724.25;5032011;28;20468;-72
2023/09/20 02:26:51;;;;;;;7.75;2.90;;;;;;;18.23;67.03;100722.88;5034141;28;20022;-72
2023/09/20 02:29:17;;;;;;;4.82;2.00;;;;;;;18.23;67.15;100714.47;5033013;28;20018;-72
2023/09/20 02:31:42;;;;;;;7.85;2.47;;;;;;;18.27;67.13;100709.91;5030617;28;20091;-72
2023/09/20 02:34:08;;;;;;;7.35;2.55;;;;;;;18.26;66.80;100708.22;5027002;28;20037;-72
2023/09/20 02:36:33;;;;;;;9.15;2.63;;;;;;;18.29;66.99;100712.41;5032887;28;20025;-72
2023/09/20 02:38:59;;;;;;;6.18;2.45;;;;;;;18.27;66.83;100715.50;5032291;28;20610;-72
2023/09/20 02:41:24;;;;;;;7.88;2.40;;;;;;;18.29;67.11;100710.44;5032948;28;20029;-72
2023/09/20 02:43:51;;;;;;;6.53;2.70;;;;;;;18.29;66.92;100716.06;5032886;28;20405;-72
2023/09/20 02:46:18;;;;;;;7.07;2.42;;;;;;;18.25;67.07;100700.13;5031432;28;20048;-72
2023/09/20 02:48:43;;;;;;;5.15;2.28;;;;;;;18.25;67.00;100706.56;5031618;28;20030;-72
2023/09/20 02:51:08;;;;;;;6.85;2.65;;;;;;;18.28;67.11;100699.50;5029125;28;20505;-72
2023/09/20 02:53:36;;;;;;;5.38;2.53;;;;;;;18.26;67.10;100697.00;5030299;28;20072;-72
2023/09/20 02:56:05;;;;;;;6.70;2.88;;;;;;;18.23;67.38;100697.59;5029798;28;20025;-72
2023/09/20 02:58:30;;;;;;;7.13;2.35;;;;;;;18.19;67.42;100693.75;5030571;28;20032;-72
2023/09/20 03:00:55;;;;;;;6.90;2.97;;;;;;;18.23;67.34;100686.38;5027841;28;20022;-72
2023/09/20 03:03:23;;;;;;;9.95;3.28;;;;;;;18.20;67.25;100695.44;5032505;28;20033;-72
2023/09/20 03:05:48;;;;;;;7.55;2.50;;;;;;;18.15;67.61;100687.91;5032457;28;20048;-72
2023/09/20 03:08:13;;;;;;;6.60;2.38;;;;;;;18.15;67.78;100690.72;5033040;28;20038;-72
2023/09/20 03:10:43;;;;;;;5.80;2.67;;;;;;;18.16;67.60;100683.16;5026008;28;20041;-72
2023/09/20 03:13:16;;;;;;;5.75;2.60;;;;;;;18.14;67.63;100679.81;5012625;28;20029;-72
2023/09/20 03:15:43;;;;;;;8.75;2.80;;;;;;;18.13;67.81;100670.53;5013485;28;20030;-72
2023/09/20 03:18:09;;;;;;;8.25;2.67;;;;;;;18.12;67.65;100679.28;5013115;28;20460;-72
2023/09/20 03:20:38;;;;;;;4.65;2.25;;;;;;;18.10;67.76;100671.16;5013070;28;20038;-72
2023/09/20 03:23:05;;;;;;;7.95;2.83;;;;;;;18.08;68.03;100661.38;5032943;28;20065;-73
2023/09/20 03:25:35;;;;;;;9.00;2.78;;;;;;;18.07;67.94;100668.13;5032182;28;20030;-73
2023/09/20 03:28:07;;;;;;;6.13;2.42;;;;;;;18.03;67.85;100664.25;5023566;28;20639;-72
2023/09/20 03:30:33;;;;;;;8.05;3.13;;;;;;;17.99;67.95;100657.59;5013040;28;20426;-72
2023/09/20 03:33:04;;;;;;;5.45;2.40;;;;;;;17.95;68.27;100656.53;5012906;28;20037;-72
2023/09/20 03:35:29;;;;;;;5.55;2.50;;;;;;;17.85;68.72;100669.63;5012288;28;20782;-72
2023/09/20 03:37:55;;;;;;;7.20;2.50;;;;;;;17.90;68.57;100672.34;5012788;28;20035;-73
2023/09/20 03:40:22;;;;;;;8.88;2.88;;;;;;;17.86;68.55;100674.09;5026691;28;20121;-72
2023/09/20 03:42:48;;;;;;;7.43;2.33;;;;;;;17.88;68.57;100679.41;5031825;28;20109;-72
2023/09/20 03:45:16;;;;;;;10.23;2.63;;;;;;;17.82;68.94;100669.41;5021929;28;20025;-72
2023/09/20 03:47:42;;;;;;;7.78;2.38;;;;;;;17.77;69.22;100666.69;5012195;28;20022;-72
2023/09/20 03:50:11;;;;;;;9.20;2.80;;;;;;;17.82;68.95;100677.84;5012623;28;20052;-72
2023/09/20 03:52:37;;;;;;;7.03;2.40;;;;;;;17.75;69.30;100672.59;5012680;28;20469;-72
2023/09/20 03:55:04;;;;;;;8.57;2.60;;;;;;;17.76;69.20;100682.69;5015153;28;20120;-72
2023/09/20 03:57:29;;;;;;;5.45;2.67;;;;;;;17.79;69.17;100672.81;5012380;28;20022;-72
2023/09/20 03:59:57;;;;;;;5.20;2.13;;;;;;;17.79;69.01;100670.84;5012466;28;20447;-72
2023/09/20 04:02:24;;;;;;;8.52;2.67;;;;;;;17.79;69.06;100664.41;5011815;28;20026;-72
2023/09/20 04:04:55;;;;;;;6.80;2.58;;;;;;;17.71;69.43;100660.28;5012405;28;20022;-72
2023/09/20 04:07:24;;;;;;;7.88;2.83;;;;;;;17.72;69.43;100669.53;5012602;28;20068;-72
2023/09/20 04:09:49;;;;;;;6.95;2.78;;;;;;;17.68;69.47;100669.31;5021669;28;20041;-72
2023/09/20 04:12:15;;;;;;;12.10;2.75;;;;;;;17.69;69.51;100671.00;5028914;28;20025;-72
2023/09/20 04:14:43;;;;;;;7.45;2.50;;;;;;;17.62;69.64;100670.53;5012508;28;20026;-73
2023/09/20 04:17:10;;;;;;;7.25;2.60;;;;;;;17.57;69.68;100657.44;5011434;28;20527;-72
2023/09/20 04:19:39;;;;;;;8.25;2.80;;;;;;;17.58;69.73;100669.47;5025534;28;20052;-73
2023/09/20 04:22:05;;;;;;;8.70;2.67;;;;;;;17.61;69.74;100661.28;5031930;28;20047;-72
2023/09/20 04:24:32;;;;;;;5.20;2.42;;;;;;;17.61;69.84;100649.22;5030978;28;20133;-72
2023/09/20 04:26:58;;;;;;;6.22;2.83;;;;;;;17.59;69.83;100649.53;5024621;28;20034;-72
2023/09/20 04:29:24;;;;;;;4.70;2.45;;;;;;;17.61;69.67;100652.03;5016233;28;20059;-72
2023/09/20 04:31:58;;;;;;;6.40;2.80;;;;;;;17.61;69.79;100638.84;5035783;28;20053;-72
2023/09/20 04:34:24;;;;;;;8.23;2.55;;;;;;;17.60;69.86;100642.75;5041418;28;20108;-73
2023/09/20 04:36:53;;;;;;;8.90;3.08;;;;;;;17.57;69.99;100634.16;5015391;28;20026;-73
2023/09/20 04:39:20;;;;;;;6.18;2.67;;;;;;;17.50;70.24;100631.72;5011940;28;20034;-73
2023/09/20 04:41:46;;;;;;;5.22;2.65;;;;;;;17.51;70.40;100635.34;5012002;28;20026;-72
2023/09/20 04:44:13;;;;;;;4.85;2.47;;;;;;;17.49;70.32;100615.16;5011101;28;20372;-72
2023/09/20 04:46:39;;;;;;;7.03;2.75;;;;;;;17.49;70.20;100626.38;5011823;28;20026;-72
2023/09/20 04:49:10;;;;;;;7.88;2.83;;;;;;;17.52;70.39;100637.00;5012531;28;20030;-72
2023/09/20 04:51:36;;;;;;;8.48;3.28;;;;;;;17.50;70.41;100634.53;5027522;28;20036;-73
2023/09/20 04:54:01;;;;;;;9.32;2.92;;;;;;;17.47;70.43;100631.50;5030114;28;20041;-72
2023/09/20 04:56:27;;;;;;;7.05;2.58;;;;;;;17.47;70.62;100637.94;5030497;28;20041;-72
2023/09/20 04:58:52;;;;;;;8.90;2.80;;;;;;;17.35;70.98;100644.00;5030553;28;20619;-72
2023/09/20 05:01:18;;;;;;;6.78;2.63;;;;;;;17.41;70.79;100631.59;5027159;28;20195;-72
2023/09/20 05:03:43;;;;;;;4.88;2.55;;;;;;;17.42;70.88;100636.03;5014945;28;20037;-72
2023/09/20 05:06:09;;;;;;;5.95;2.30;;;;;;;17.41;70.83;100628.78;5018020;28;20383;-72
2023/09/20 05:08:39;;;;;;;8.20;2.90;;;;;;;17.40;71.02;100617.84;5030810;28;20037;-72
2023/09/20 05:11:04;;;;;;;6.13;2.80;;;;;;;17.40;70.85;100623.44;5030522;28;20037;-73
2023/09/20 05:13:30;;;;;;;7.82;3.05;;;;;;;17.35;71.02;100624.38;5030315;28;20029;-72
2023/09/20 05:15:55;;;;;;;6.47;2.40;;;;;;;17.36;71.30;100626.03;5031309;28;20029;-73
2023/09/20 05:18:21;;;;;;;8.43;2.55;;;;;;;17.37;71.08;100630.53;5031172;28;20037;-73
2023/09/20 05:20:47;;;;;;;5.38;2.45;;;;;;;17.40;71.13;100631.88;5020461;28;20390;-72
2023/09/20 05:23:12;;;;;;;5.90;3.03;;;;;;;17.38;71.07;100635.00;5011420;28;20154;-73
2023/09/20 05:25:38;;;;;;;5.55;3.20;;;;;;;17.33;71.47;100637.88;5030766;28;20029;-72
2023/09/20 05:28:06;;;;;;;5.82;3.13;;;;;;;17.21;71.95;100628.22;5029442;28;20029;-72
2023/09/20 05:30:32;;;;;;;7.70;2.95;;;;;;;17.13;72.34;100624.13;5030395;28;20587;-72
2023/09/20 05:32:59;;;;;;;10.65;3.17;;;;;;;17.21;72.01;100628.22;5030842;28;20116;-72
2023/09/20 05:35:26;;;;;;;6.07;2.80;;;;;;;17.15;72.46;100627.47;5030103;28;20036;-72
2023/09/20 05:37:55;;;;;;;5.95;2.50;;;;;;;17.12;72.36;100620.50;5029856;28;20086;-72
2023/09/20 05:40:21;;;;;;;6.28;3.17;;;;;;;17.12;72.70;100611.25;5028490;28;20030;-72
2023/09/20 05:42:47;;;;;;;8.50;2.90;;;;;;;17.16;72.57;100615.13;5029621;28;20017;-72
2023/09/20 05:45:13;;;;;;;7.65;2.88;;;;;;;17.19;72.27;100622.94;5030060;28;20025;-72
2023/09/20 05:47:40;;;;;;;9.68;3.05;;;;;;;17.24;72.23;100620.03;5028728;28;20406;-72
2023/09/20 05:50:07;;;;;;;8.20;3.30;;;;;;;17.25;72.19;100607.72;5030560;28;20036;-72
2023/09/20 05:52:32;;;;;;;6.78;2.85;;;;;;;17.35;71.83;100606.72;5030583;28;20500;-72
2023/09/20 05:54:58;;;;;;;5.45;2.60;;;;;;;17.33;72.11;100608.97;5029814;28;20033;-72
2023/09/20 05:57:23;;;;;;;5.72;2.50;;;;;;;17.35;71.91;100607.53;5026706;28;20022;-72
2023/09/20 05:59:49;;;;;;;6.22;2.63;;;;;;;17.39;71.80;100608.59;5010814;28;20025;-72
2023/09/20 06:02:14;;;;;;;3.80;2.30;;;;;;;17.36;71.91;100623.22;5022330;28;20034;-72
2023/09/20 06:04:40;;;;;;;8.13;2.92;;;;;;;17.38;72.23;100628.56;5030419;28;20038;-73
2023/09/20 06:07:05;;;;;;;5.45;2.28;;;;;;;17.39;71.96;100627.41;5030492;28;20159;-72
2023/09/20 06:09:31;;;;;;;7.82;2.60;;;;;;;17.42;71.99;100624.00;5029709;28;20124;-72
2023/09/20 06:11:56;;;;;;;7.00;2.55;;;;;;;17.48;72.00;100611.53;5030433;28;20028;-72
2023/09/20 06:14:24;;;;;;;6.35;2.60;;;;;;;17.42;72.19;100613.59;5028084;28;20427;-65
2023/09/20 06:16:51;;;;;;;6.82;2.38;;;;;;;17.36;72.62;100609.19;5017357;28;20033;-74
2023/09/20 06:19:16;;;;;;;8.75;2.60;;;;;;;17.38;72.57;100604.13;5015448;28;20087;-74
2023/09/20 06:21:46;;;;;;;6.90;2.53;;;;;;;17.37;72.74;100599.66;5030412;28;20392;-74
2023/09/20 06:24:11;;;;;;;4.75;2.20;;;;;;;17.41;72.63;100608.31;5029760;28;20029;-74
2023/09/20 06:26:40;;;;;;;4.78;2.30;;;;;;;17.40;72.90;100612.22;5032480;28;20480;-72
2023/09/20 06:29:08;;;;;;;4.65;2.20;;;;;;;17.45;72.72;100609.38;5033919;28;20033;-73
2023/09/20 06:31:33;;;;;;;4.97;2.70;;;;;;;17.43;72.75;100612.47;5029065;28;20048;-73
2023/09/20 06:33:58;;;;;;;5.97;2.42;;;;;;;17.46;72.80;100622.25;5024285;28;20022;-74
2023/09/20 06:36:24;;;;;;;5.00;2.13;;;;;;;17.48;72.91;100610.72;5033427;28;20021;-73
2023/09/20 06:38:52;;;;;;;5.78;2.63;;;;;;;17.50;73.06;100614.06;5033663;28;20040;-73
2023/09/20 06:41:20;;;;;;;7.72;2.92;;;;;;;17.52;73.07;100614.56;5033477;28;20436;-74
2023/09/20 06:43:46;;;;;;;8.02;2.65;;;;;;;17.50;73.11;100611.25;5031020;28;20112;-72
2023/09/20 06:46:11;;;;;;;6.90;2.55;;;;;;;17.51;73.05;100613.75;5028101;28;20132;-74
2023/09/20 06:48:37;;;;;;;5.50;2.45;;;;;;;17.55;73.11;100609.19;5020438;28;20037;-74
2023/09/20 06:51:03;;;;;;;9.38;2.58;;;;;;;17.54;73.12;100624.34;5028871;28;20029;-74
2023/09/20 06:53:30;;;;;;;7.40;2.42;;;;;;;17.56;73.27;100624.03;5011826;28;20041;-74
2023/09/20 06:55:56;;;;;;;5.10;2.38;;;;;;;17.58;73.30;100616.16;5012081;28;20112;-73
2023/09/20 06:58:25;;;;;;;7.28;2.85;;;;;;;17.63;73.13;100622.50;5012302;28;20037;-74
2023/09/20 07:00:51;;;;;;;5.22;2.35;;;;;;;17.69;72.97;100616.84;5012926;28;20068;-74
2023/09/20 07:03:18;;;;;;;5.78;2.40;;;;;;;17.71;72.70;100612.56;5013819;28;20508;-72
2023/09/20 07:05:44;;;;;;;6.32;2.50;;;;;;;17.74;72.87;100620.38;5030420;28;20021;-74
2023/09/20 07:08:10;;;;;;;6.22;2.40;;;;;;;17.74;72.80;100614.75;5029847;28;20497;-71
2023/09/20 07:10:41;;;;;;;5.70;2.38;;;;;;;17.77;72.79;100621.78;5022304;28;20036;-76
2023/09/20 07:13:09;;;;;;;5.95;2.70;;;;;;;17.75;72.74;100608.03;5029571;28;20061;-72
2023/09/20 07:15:35;;;;;;;8.15;2.78;;;;;;;17.80;72.67;100599.53;5023067;28;20109;-73
2023/09/20 07:18:11;;;;;;;6.35;2.75;;;;;;;17.80;72.74;100599.53;5025914;28;20117;-72
2023/09/20 07:20:36;;;;;;;6.50;2.38;;;;;;;17.79;72.47;100597.84;5027581;28;20038;-73
2023/09/20 07:23:06;;;;;;;5.25;2.25;;;;;;;17.83;72.67;100593.28;5028558;28;20021;-72
2023/09/20 07:25:35;;;;;;;8.02;2.80;;;;;;;17.90;72.07;100607.75;5024678;28;20053;-72
2023/09/20 07:28:04;;;;;;;6.70;2.65;;;;;;;17.90;71.84;100604.97;5025316;28;20049;-73
2023/09/20 07:30:40;;;;;;;5.72;2.50;;;;;;;17.90;72.26;100602.16;5032655;28;20040;-76
2023/09/20 07:33:11;;;;;;;5.25;2.30;;;;;;;17.94;72.33;100604.34;5029739;28;20033;-79
2023/09/20 07:35:38;;;;;;;7.22;2.58;;;;;;;17.99;72.21;100607.88;5029433;28;20036;-79
2023/09/20 07:41:17;;;;;;;4.63;2.47;;;;;;;18.11;72.21;100613.00;5028998;28;20163;-76
2023/09/20 07:43:51;;;;;;;6.93;2.40;;;;;;;18.13;71.62;100596.69;5026854;28;20030;-80
2023/09/20 07:46:20;;;;;;;8.20;2.72;;;;;;;18.17;71.43;100613.75;5011875;28;20436;-77
2023/09/20 07:48:50;;;;;;;6.53;2.40;;;;;;;18.14;71.72;100615.19;5020302;28;20033;-77
2023/09/20 07:51:20;;;;;;;5.68;2.38;;;;;;;18.17;71.78;100616.56;5029915;28;20029;-76
2023/09/20 07:53:54;;;;;;;5.00;2.35;;;;;;;18.18;71.94;100610.63;5027503;28;20041;-81
2023/09/20 07:56:20;;;;;;;6.00;2.70;;;;;;;18.29;71.07;100616.88;5025706;28;20026;-75
2023/09/20 07:58:46;;;;;;;4.47;2.63;;;;;;;18.30;71.11;100610.94;5028243;28;20053;-75
2023/09/20 08:01:20;;;;;;;4.70;2.38;;;;;;;18.29;71.34;100603.66;5028071;28;20431;-73
2023/09/20 08:03:52;;;;;;;6.65;3.05;;;;;;;18.31;71.21;100594.91;5030539;28;20041;-75
2023/09/20 08:06:21;;;;;;;5.53;2.60;;;;;;;18.36;71.07;100604.09;5028032;28;20043;-75
2023/09/20 08:08:48;;;;;;;5.10;2.90;;;;;;;18.45;70.88;100603.38;5019240;28;20049;-72
2023/09/20 08:11:13;;;;;;;4.72;2.85;;;;;;;18.47;70.79;100601.06;5029157;28;20025;-70
2023/09/20 08:13:39;;;;;;;4.47;2.85;;;;;;;18.57;70.63;100606.47;5016035;28;20068;-70
2023/09/20 08:16:09;;;;;;;5.57;3.00;;;;;;;18.61;70.24;100607.53;5020446;28;20034;-72
2023/09/20 08:21:21;;;;;;;10.05;3.60;;;;;;;18.68;70.09;100610.75;5030754;28;20048;-73
2023/09/20 08:59:54;;;;;;;6.95;2.92;;;;;;;19.36;67.85;100625.84;5030726;28;20076;-73
2023/09/20 09:02:24;;;;;;;7.40;3.00;;;;;;;19.41;67.69;100630.53;5030658;28;20128;-73
2023/09/20 09:04:56;;;;;;;5.72;2.63;;;;;;;19.46;68.61;100625.63;5023337;28;20041;-73
2023/09/20 09:07:25;;;;;;;5.38;2.88;;;;;;;19.47;68.21;100618.00;5011050;28;20022;-73
2023/09/20 09:09:51;;;;;;;6.65;2.78;;;;;;;19.43;67.61;100617.81;5023538;28;20128;-74
2023/09/20 09:12:17;;;;;;;6.38;2.90;;;;;;;19.40;68.05;100618.44;5029610;28;20040;-74
2023/09/20 09:14:42;;;;;;;5.95;2.80;;;;;;;19.34;68.55;100617.75;5030359;28;20056;-74
2023/09/20 09:17:09;;;;;;;6.72;2.80;;;;;;;19.33;68.44;100624.50;5029906;28;20037;-74
2023/09/20 09:19:37;;;;;;;6.15;2.53;;;;;;;19.31;68.40;100624.00;5029727;28;20034;-73
2023/09/20 09:22:06;;;;;;;4.05;2.33;;;;;;;19.30;68.08;100619.53;5029382;28;20060;-73
2023/09/20 09:24:45;;;;;;;3.47;2.53;;;;;;;19.31;68.85;100620.34;5024151;28;20040;-73
2023/09/20 09:27:11;;;;;;;5.47;2.78;;;;;;;19.32;69.13;100616.38;5029255;28;20029;-73
2023/09/20 09:29:37;;;;;;;8.25;2.80;;;;;;;19.33;68.93;100618.88;5030255;28;20034;-73
2023/09/20 09:32:04;;;;;;;6.38;2.80;;;;;;;19.37;69.18;100630.31;5030128;28;20030;-73
2023/09/20 09:34:30;;;;;;;6.10;2.72;;;;;;;19.38;68.70;100613.13;5028343;28;20049;-73
2023/09/20 09:36:55;;;;;;;7.78;2.92;;;;;;;19.37;68.39;100619.06;5029159;28;20033;-74
2023/09/20 09:39:26;;;;;;;4.65;2.40;;;;;;;19.45;68.38;100614.66;5028373;28;20079;-73
2023/09/20 09:41:53;;;;;;;3.92;2.33;;;;;;;19.50;68.19;100615.38;5015775;28;20030;-73
2023/09/20 09:44:20;;;;;;;4.53;2.40;;;;;;;19.56;68.29;100611.28;5010241;28;20061;-73
2023/09/20 09:46:45;;;;;;;5.95;2.70;;;;;;;19.58;68.42;100605.34;5009854;28;20029;-74
2023/09/20 09:49:18;;;;;;;4.65;2.20;;;;;;;19.64;68.23;100606.91;5010053;28;20748;-73
2023/09/20 09:51:51;;;;;;;5.00;2.38;;;;;;;19.66;67.68;100610.25;5016132;28;20038;-73
2023/09/20 09:54:18;;;;;;;5.03;2.28;;;;;;;19.70;67.46;100597.19;5016679;28;20041;-73
2023/09/20 09:56:44;;;;;;;5.75;2.25;;;;;;;19.76;67.81;100581.78;5010585;28;20081;-73
2023/09/20 09:59:10;;;;;;;4.60;2.30;;;;;;;19.79;67.15;100581.16;5010193;28;20084;-73
2023/09/20 10:01:37;;;;;;;6.80;2.80;;;;;;;19.84;67.03;100578.19;5027347;28;20033;-73
2023/09/20 10:04:13;;;;;;;7.53;2.15;;;;;;;19.89;66.94;100576.44;5033334;28;20116;-74
2023/09/20 10:07:05;;;;;;;4.88;2.40;;;;;;;19.94;66.77;100573.47;5033641;28;20029;-73
2023/09/20 10:09:42;;;;;;;6.03;2.38;;;;;;;19.96;66.84;100579.59;5019624;28;20041;-73
2023/09/20 10:12:08;;;;;;;4.68;2.22;;;;;;;19.99;66.56;100581.78;5013902;28;20026;-73
2023/09/20 10:14:37;;;;;;;5.43;2.50;;;;;;;20.01;66.93;100583.13;5013111;28;20033;-73
2023/09/20 10:17:04;;;;;;;6.05;2.25;;;;;;;20.02;66.20;100573.50;5013679;28;20030;-73
2023/09/20 10:19:30;;;;;;;3.60;2.13;;;;;;;20.05;65.84;100567.22;5013916;28;20056;-73
2023/09/20 10:22:08;;;;;;;4.60;2.20;;;;;;;20.16;66.68;100573.44;5012409;28;20066;-73
2023/09/20 10:25:02;;;;;;;2.80;1.90;;;;;;;20.26;65.98;100561.84;5026722;28;20404;-73
2023/09/20 10:27:34;;;;;;;5.03;2.08;;;;;;;20.35;65.67;100564.69;5029336;28;20038;-73
2023/09/20 10:30:14;;;;;;;5.68;2.45;;;;;;;20.40;64.67;100566.56;5012725;28;20030;-73
2023/09/20 10:32:47;;;;;;;3.42;1.60;;;;;;;20.47;64.20;100569.72;5013678;28;20058;-73
2023/09/20 10:35:19;;;;;;;5.18;1.90;;;;;;;20.53;64.53;100558.00;5013233;28;20096;-73
2023/09/20 10:38:10;;;;;;;2.97;1.67;;;;;;;20.64;64.72;100554.88;5015170;28;20389;-73
2023/09/20 10:40:45;;;;;;;4.35;1.60;;;;;;;20.65;63.59;100562.19;5033387;28;20099;-73
2023/09/20 10:43:14;;;;;;;5.57;1.70;;;;;;;20.71;62.73;100549.56;5031557;28;20037;-73
2023/09/20 10:45:39;;;;;;;3.35;1.70;;;;;;;20.65;62.30;100545.25;5025698;28;20029;-70
2023/09/20 10:48:17;;;;;;;3.15;1.40;;;;;;;20.65;63.10;100548.06;5017784;28;20481;-70
2023/09/20 10:50:50;;;;;;;4.80;1.50;;;;;;;20.62;62.40;100534.63;5012644;28;20422;-67
2023/09/20 10:53:18;;;;;;;6.32;1.75;;;;;;;20.62;63.19;100543.09;5018521;28;20543;-69
2023/09/20 10:55:44;;;;;;;3.97;1.30;;;;;;;20.63;63.09;100536.28;5019376;28;20021;-69
2023/09/20 10:58:12;;;;;;;2.50;1.30;;;;;;;20.66;62.76;100533.63;5029657;28;20029;-68
2023/09/20 11:00:38;;;;;;;3.22;1.13;;;;;;;20.67;62.77;100528.81;5024116;28;20040;-71
2023/09/20 11:03:07;;;;;;;6.47;1.67;;;;;;;20.67;63.19;100529.69;5027105;28;20022;-71
2023/09/20 11:05:34;;;;;;;4.60;1.40;;;;;;;20.65;62.32;100540.44;5027614;28;20052;-71
2023/09/20 11:08:12;;;;;;;3.17;1.25;;;;;;;20.63;62.62;100530.63;5021753;28;20374;-70
2023/09/20 11:10:45;;;;;;;2.88;1.60;;;;;;;20.64;62.89;100532.31;5032510;28;20482;-70
2023/09/20 11:13:12;;;;;;;3.63;1.63;;;;;;;20.64;63.41;100521.88;5014405;28;20034;-69
2023/09/20 11:15:46;;;;;;;3.97;1.27;;;;;;;20.62;63.27;100529.81;5022046;28;20062;-71
2023/09/20 11:18:15;;;;;;;2.50;1.40;;;;;;;20.64;63.26;100533.16;5023964;28;20381;-70
2023/09/20 11:20:41;;;;;;;5.30;1.60;;;;;;;20.66;63.36;100525.19;5012615;28;20168;-70
2023/09/20 11:23:09;;;;;;;4.70;1.50;;;;;;;20.69;62.43;100523.69;5023428;28;20030;-71
2023/09/20 11:25:34;;;;;;;4.13;1.60;;;;;;;20.76;62.41;100527.69;5028287;28;20067;-70
2023/09/20 11:28:07;;;;;;;3.58;1.40;;;;;;;20.80;61.66;100534.34;5018843;28;20069;-70
2023/09/20 11:30:33;;;;;;;5.43;1.58;;;;;;;20.79;61.83;100518.59;5023319;28;20507;-70
2023/09/20 11:33:01;;;;;;;3.15;1.40;;;;;;;20.80;61.81;100522.22;5027888;28;20045;-69
2023/09/20 11:35:33;;;;;;;3.38;1.38;;;;;;;20.79;62.31;100526.22;5027346;28;20033;-70
2023/09/20 11:38:03;;;;;;;5.68;1.58;;;;;;;20.74;61.58;100520.72;5027870;28;20477;-73
2023/09/20 11:40:31;;;;;;;3.25;1.70;;;;;;;20.65;61.27;100526.34;5022886;28;20033;-74
2023/09/20 11:42:56;;;;;;;3.80;1.65;;;;;;;20.62;61.33;100524.19;5030676;28;20021;-77
2023/09/20 11:45:24;;;;;;;3.63;1.55;;;;;;;20.63;61.98;100520.19;5012509;28;20040;-78
2023/09/20 11:47:51;;;;;;;5.65;1.63;;;;;;;20.65;62.31;100525.53;5011626;28;20049;-76
2023/09/20 11:50:17;;;;;;;6.05;2.22;;;;;;;20.66;62.43;100525.19;5012284;28;20044;-80
2023/09/20 11:52:46;;;;;;;3.17;1.38;;;;;;;20.64;62.57;100521.03;5012472;28;20029;-76
2023/09/20 11:55:12;;;;;;;4.30;1.67;;;;;;;20.65;62.37;100526.34;5012054;28;20881;-76
2023/09/20 11:57:37;;;;;;;4.75;1.55;;;;;;;20.69;61.78;100526.53;5024194;28;20457;-80
2023/09/20 12:00:03;;;;;;;2.53;1.42;;;;;;;20.68;61.33;100522.03;5011761;28;20026;-78
2023/09/20 12:02:31;;;;;;;3.05;1.73;;;;;;;20.68;61.73;100528.50;5012021;28;20034;-80
2023/09/20 12:04:56;;;;;;;4.05;1.42;;;;;;;20.71;61.84;100516.59;5012297;28;20034;-79
2023/09/20 12:07:22;;;;;;;3.95;1.58;;;;;;;20.75;61.69;100534.50;5011603;28;20030;-78
2023/09/20 12:09:50;;;;;;;6.30;1.83;;;;;;;20.76;61.33;100524.88;5012953;28;20034;-78